sensor_id;sensor_type;location;lat;lon;timestamp;P1;durP1;ratioP1;P2;durP2;ratioP2
61909;SDS011;47865;52.086;5.410;2022-09-21T00:01:17;8.00;;;2.22;;
61909;SDS011;47865;52.086;5.410;2022-09-21T00:03:46;5.55;;;2.10;;
61909;SDS011;47865;52.086;5.410;2022-09-21T00:06:18;6.25;;;1.98;;
61909;SDS011;47865;52.086;5.410;2022-09-21T00:08:46;4.97;;;1.90;;
61909;SDS011;47865;52.086;5.410;2022-09-21T00:11:15;5.10;;;1.83;;
61909;SDS011;47865;52.086;5.410;2022-09-21T00:13:46;6.65;;;2.03;;
61909;SDS011;47865;52.086;5.410;2022-09-21T00:16:17;6.25;;;2.30;;
61909;SDS011;47865;52.086;5.410;2022-09-21T00:18:44;8.13;;;1.73;;
61909;SDS011;47865;52.086;5.410;2022-09-21T00:21:12;5.20;;;1.95;;
61909;SDS011;47865;52.086;5.410;2022-09-21T00:23:40;4.10;;;1.73;;
61909;SDS011;47865;52.086;5.410;2022-09-21T00:26:09;5.22;;;2.33;;
61909;SDS011;47865;52.086;5.410;2022-09-21T00:28:38;6.97;;;2.10;;
61909;SDS011;47865;52.086;5.410;2022-09-21T00:31:07;3.83;;;2.17;;
61909;SDS011;47865;52.086;5.410;2022-09-21T00:33:37;3.63;;;1.85;;
61909;SDS011;47865;52.086;5.410;2022-09-21T00:36:10;3.78;;;1.85;;
61909;SDS011;47865;52.086;5.410;2022-09-21T00:38:39;5.30;;;1.75;;
61909;SDS011;47865;52.086;5.410;2022-09-21T00:41:06;7.03;;;1.73;;
61909;SDS011;47865;52.086;5.410;2022-09-21T00:43:36;3.97;;;1.60;;
61909;SDS011;47865;52.086;5.410;2022-09-21T00:46:07;5.20;;;1.33;;
61909;SDS011;47865;52.086;5.410;2022-09-21T00:48:41;3.33;;;1.52;;
61909;SDS011;47865;52.086;5.410;2022-09-21T00:51:09;7.18;;;1.70;;
61909;SDS011;47865;52.086;5.410;2022-09-21T00:53:36;6.03;;;1.73;;
61909;SDS011;47865;52.086;5.410;2022-09-21T00:56:03;5.65;;;1.33;;
61909;SDS011;47865;52.086;5.410;2022-09-21T00:58:37;4.45;;;1.35;;
61909;SDS011;47865;52.086;5.410;2022-09-21T01:01:09;4.18;;;1.25;;
61909;SDS011;47865;52.086;5.410;2022-09-21T01:03:37;2.45;;;1.20;;
61909;SDS011;47865;52.086;5.410;2022-09-21T01:06:04;3.42;;;1.20;;
61909;SDS011;47865;52.086;5.410;2022-09-21T01:08:31;5.13;;;1.60;;
61909;SDS011;47865;52.086;5.410;2022-09-21T01:16:26;3.65;;;1.20;;
61909;SDS011;47865;52.086;5.410;2022-09-21T01:19:13;9.88;;;1.55;;
61909;SDS011;47865;52.086;5.410;2022-09-21T01:22:00;2.53;;;1.60;;
61909;SDS011;47865;52.086;5.410;2022-09-21T01:30:19;1.98;;;1.20;;
61909;SDS011;47865;52.086;5.410;2022-09-21T01:32:58;2.78;;;1.35;;
61909;SDS011;47865;52.086;5.410;2022-09-21T01:35:38;3.47;;;1.13;;
61909;SDS011;47865;52.086;5.410;2022-09-21T01:38:20;2.10;;;1.10;;
61909;SDS011;47865;52.086;5.410;2022-09-21T01:40:54;4.82;;;1.33;;
61909;SDS011;47865;52.086;5.410;2022-09-21T01:43:27;6.90;;;1.70;;
61909;SDS011;47865;52.086;5.410;2022-09-21T01:46:09;4.88;;;1.38;;
61909;SDS011;47865;52.086;5.410;2022-09-21T01:48:42;2.80;;;1.13;;
61909;SDS011;47865;52.086;5.410;2022-09-21T01:51:14;5.20;;;1.23;;
61909;SDS011;47865;52.086;5.410;2022-09-21T01:53:45;2.35;;;1.30;;
61909;SDS011;47865;52.086;5.410;2022-09-21T02:01:44;4.32;;;1.33;;
61909;SDS011;47865;52.086;5.410;2022-09-21T02:04:17;4.80;;;1.25;;
61909;SDS011;47865;52.086;5.410;2022-09-21T02:06:45;5.38;;;1.45;;
61909;SDS011;47865;52.086;5.410;2022-09-21T02:09:13;7.28;;;1.80;;
61909;SDS011;47865;52.086;5.410;2022-09-21T02:11:40;1.85;;;1.20;;
61909;SDS011;47865;52.086;5.410;2022-09-21T02:14:19;5.63;;;1.27;;
61909;SDS011;47865;52.086;5.410;2022-09-21T02:16:54;2.92;;;1.45;;
61909;SDS011;47865;52.086;5.410;2022-09-21T02:19:48;2.47;;;1.00;;
61909;SDS011;47865;52.086;5.410;2022-09-21T02:22:40;2.47;;;1.33;;
61909;SDS011;47865;52.086;5.410;2022-09-21T02:25:48;4.85;;;1.35;;
61909;SDS011;47865;52.086;5.410;2022-09-21T02:31:36;6.72;;;1.80;;
61909;SDS011;47865;52.086;5.410;2022-09-21T02:36:56;3.65;;;1.35;;
61909;SDS011;47865;52.086;5.410;2022-09-21T02:42:22;2.83;;;1.13;;
61909;SDS011;47865;52.086;5.410;2022-09-21T02:44:59;3.80;;;1.30;;
61909;SDS011;47865;52.086;5.410;2022-09-21T02:47:33;2.78;;;1.23;;
61909;SDS011;47865;52.086;5.410;2022-09-21T02:50:11;4.40;;;1.33;;
61909;SDS011;47865;52.086;5.410;2022-09-21T02:52:45;4.40;;;1.40;;
61909;SDS011;47865;52.086;5.410;2022-09-21T02:55:12;4.07;;;1.58;;
61909;SDS011;47865;52.086;5.410;2022-09-21T02:57:42;4.07;;;1.38;;
61909;SDS011;47865;52.086;5.410;2022-09-21T03:00:12;2.28;;;1.30;;
61909;SDS011;47865;52.086;5.410;2022-09-21T03:02:41;3.53;;;1.40;;
61909;SDS011;47865;52.086;5.410;2022-09-21T03:05:10;6.30;;;1.52;;
61909;SDS011;47865;52.086;5.410;2022-09-21T03:07:38;3.33;;;1.50;;
61909;SDS011;47865;52.086;5.410;2022-09-21T03:10:05;5.75;;;1.70;;
61909;SDS011;47865;52.086;5.410;2022-09-21T03:12:34;5.97;;;1.48;;
61909;SDS011;47865;52.086;5.410;2022-09-21T03:15:01;4.55;;;1.55;;
61909;SDS011;47865;52.086;5.410;2022-09-21T03:17:29;6.00;;;2.00;;
61909;SDS011;47865;52.086;5.410;2022-09-21T03:19:56;4.22;;;1.52;;
61909;SDS011;47865;52.086;5.410;2022-09-21T03:22:23;3.88;;;1.63;;
61909;SDS011;47865;52.086;5.410;2022-09-21T03:24:50;4.85;;;2.10;;
61909;SDS011;47865;52.086;5.410;2022-09-21T03:27:17;3.13;;;1.50;;
61909;SDS011;47865;52.086;5.410;2022-09-21T03:29:46;3.95;;;1.40;;
61909;SDS011;47865;52.086;5.410;2022-09-21T03:32:13;3.80;;;1.60;;
61909;SDS011;47865;52.086;5.410;2022-09-21T03:34:40;4.22;;;1.80;;
61909;SDS011;47865;52.086;5.410;2022-09-21T03:37:07;5.32;;;1.80;;
61909;SDS011;47865;52.086;5.410;2022-09-21T03:39:34;3.63;;;1.88;;
61909;SDS011;47865;52.086;5.410;2022-09-21T03:42:01;3.83;;;1.60;;
61909;SDS011;47865;52.086;5.410;2022-09-21T03:44:29;3.65;;;1.42;;
61909;SDS011;47865;52.086;5.410;2022-09-21T03:46:56;3.28;;;1.60;;
61909;SDS011;47865;52.086;5.410;2022-09-21T03:49:23;5.25;;;1.52;;
61909;SDS011;47865;52.086;5.410;2022-09-21T03:51:50;3.33;;;1.73;;
61909;SDS011;47865;52.086;5.410;2022-09-21T03:54:17;3.20;;;1.58;;
61909;SDS011;47865;52.086;5.410;2022-09-21T03:56:43;4.03;;;1.95;;
61909;SDS011;47865;52.086;5.410;2022-09-21T03:59:10;4.05;;;1.70;;
61909;SDS011;47865;52.086;5.410;2022-09-21T04:01:39;4.20;;;1.83;;
61909;SDS011;47865;52.086;5.410;2022-09-21T04:04:06;5.70;;;1.85;;
61909;SDS011;47865;52.086;5.410;2022-09-21T04:06:33;5.32;;;1.98;;
61909;SDS011;47865;52.086;5.410;2022-09-21T04:09:00;3.70;;;1.40;;
61909;SDS011;47865;52.086;5.410;2022-09-21T04:11:27;7.88;;;1.77;;
61909;SDS011;47865;52.086;5.410;2022-09-21T04:13:55;8.88;;;2.55;;
61909;SDS011;47865;52.086;5.410;2022-09-21T04:16:22;3.67;;;1.60;;
61909;SDS011;47865;52.086;5.410;2022-09-21T04:18:50;5.82;;;1.80;;
61909;SDS011;47865;52.086;5.410;2022-09-21T04:21:17;3.97;;;1.65;;
61909;SDS011;47865;52.086;5.410;2022-09-21T04:23:45;4.65;;;1.80;;
61909;SDS011;47865;52.086;5.410;2022-09-21T04:26:22;4.22;;;1.85;;
61909;SDS011;47865;52.086;5.410;2022-09-21T04:28:55;10.20;;;2.28;;
61909;SDS011;47865;52.086;5.410;2022-09-21T04:31:23;3.88;;;1.45;;
61909;SDS011;47865;52.086;5.410;2022-09-21T04:33:51;4.43;;;1.75;;
61909;SDS011;47865;52.086;5.410;2022-09-21T04:36:20;6.43;;;1.90;;
61909;SDS011;47865;52.086;5.410;2022-09-21T04:38:48;9.48;;;1.60;;
61909;SDS011;47865;52.086;5.410;2022-09-21T04:41:16;3.00;;;1.45;;
61909;SDS011;47865;52.086;5.410;2022-09-21T04:43:43;5.55;;;1.60;;
61909;SDS011;47865;52.086;5.410;2022-09-21T04:46:12;6.18;;;1.77;;
61909;SDS011;47865;52.086;5.410;2022-09-21T04:48:41;4.22;;;1.95;;
61909;SDS011;47865;52.086;5.410;2022-09-21T04:51:08;5.03;;;1.73;;
61909;SDS011;47865;52.086;5.410;2022-09-21T04:53:37;5.70;;;2.13;;
61909;SDS011;47865;52.086;5.410;2022-09-21T04:56:06;9.25;;;1.88;;
61909;SDS011;47865;52.086;5.410;2022-09-21T04:58:34;4.32;;;1.70;;
61909;SDS011;47865;52.086;5.410;2022-09-21T05:01:01;4.78;;;1.88;;
61909;SDS011;47865;52.086;5.410;2022-09-21T05:03:29;4.95;;;1.73;;
61909;SDS011;47865;52.086;5.410;2022-09-21T05:05:56;5.15;;;2.22;;
61909;SDS011;47865;52.086;5.410;2022-09-21T05:08:24;4.20;;;1.55;;
61909;SDS011;47865;52.086;5.410;2022-09-21T05:11:15;3.70;;;1.40;;
61909;SDS011;47865;52.086;5.410;2022-09-21T05:13:46;5.93;;;1.90;;
61909;SDS011;47865;52.086;5.410;2022-09-21T05:16:14;4.68;;;1.52;;
61909;SDS011;47865;52.086;5.410;2022-09-21T05:18:42;5.55;;;1.95;;
61909;SDS011;47865;52.086;5.410;2022-09-21T05:21:10;12.60;;;2.05;;
61909;SDS011;47865;52.086;5.410;2022-09-21T05:23:38;10.75;;;1.98;;
61909;SDS011;47865;52.086;5.410;2022-09-21T05:26:05;4.22;;;1.55;;
61909;SDS011;47865;52.086;5.410;2022-09-21T05:28:32;7.15;;;1.58;;
61909;SDS011;47865;52.086;5.410;2022-09-21T05:34:04;3.40;;;1.75;;
61909;SDS011;47865;52.086;5.410;2022-09-21T05:39:18;8.30;;;1.85;;
61909;SDS011;47865;52.086;5.410;2022-09-21T05:41:44;8.45;;;2.05;;
61909;SDS011;47865;52.086;5.410;2022-09-21T05:44:12;6.60;;;1.77;;
61909;SDS011;47865;52.086;5.410;2022-09-21T05:46:52;5.90;;;2.15;;
61909;SDS011;47865;52.086;5.410;2022-09-21T05:58:05;8.30;;;2.00;;
61909;SDS011;47865;52.086;5.410;2022-09-21T06:03:26;5.90;;;1.67;;
61909;SDS011;47865;52.086;5.410;2022-09-21T06:05:57;6.70;;;2.10;;
61909;SDS011;47865;52.086;5.410;2022-09-21T06:08:24;5.13;;;1.70;;
61909;SDS011;47865;52.086;5.410;2022-09-21T06:10:51;6.97;;;1.60;;
61909;SDS011;47865;52.086;5.410;2022-09-21T06:13:19;5.35;;;1.63;;
61909;SDS011;47865;52.086;5.410;2022-09-21T06:15:46;6.47;;;1.70;;
61909;SDS011;47865;52.086;5.410;2022-09-21T06:18:13;3.40;;;1.70;;
61909;SDS011;47865;52.086;5.410;2022-09-21T06:20:43;3.13;;;1.40;;
61909;SDS011;47865;52.086;5.410;2022-09-21T06:23:11;3.22;;;1.75;;
61909;SDS011;47865;52.086;5.410;2022-09-21T06:25:38;6.13;;;2.25;;
61909;SDS011;47865;52.086;5.410;2022-09-21T06:28:06;5.22;;;1.80;;
61909;SDS011;47865;52.086;5.410;2022-09-21T06:30:35;5.40;;;2.33;;
61909;SDS011;47865;52.086;5.410;2022-09-21T06:33:04;8.13;;;2.30;;
61909;SDS011;47865;52.086;5.410;2022-09-21T06:35:32;3.97;;;2.03;;
61909;SDS011;47865;52.086;5.410;2022-09-21T06:38:01;8.98;;;2.83;;
61909;SDS011;47865;52.086;5.410;2022-09-21T06:40:33;7.60;;;3.20;;
61909;SDS011;47865;52.086;5.410;2022-09-21T06:43:01;7.28;;;2.97;;
61909;SDS011;47865;52.086;5.410;2022-09-21T06:45:29;8.27;;;3.13;;
61909;SDS011;47865;52.086;5.410;2022-09-21T06:47:56;7.88;;;3.60;;
61909;SDS011;47865;52.086;5.410;2022-09-21T06:50:23;8.63;;;4.93;;
61909;SDS011;47865;52.086;5.410;2022-09-21T06:52:50;8.70;;;4.07;;
61909;SDS011;47865;52.086;5.410;2022-09-21T06:55:17;11.43;;;4.38;;
61909;SDS011;47865;52.086;5.410;2022-09-21T06:57:44;9.60;;;5.35;;
61909;SDS011;47865;52.086;5.410;2022-09-21T07:00:11;11.40;;;5.03;;
61909;SDS011;47865;52.086;5.410;2022-09-21T07:02:42;17.70;;;5.45;;
61909;SDS011;47865;52.086;5.410;2022-09-21T07:05:10;12.93;;;5.32;;
61909;SDS011;47865;52.086;5.410;2022-09-21T07:07:37;12.02;;;5.15;;
61909;SDS011;47865;52.086;5.410;2022-09-21T07:10:05;12.27;;;5.43;;
61909;SDS011;47865;52.086;5.410;2022-09-21T07:12:41;13.48;;;6.25;;
61909;SDS011;47865;52.086;5.410;2022-09-21T07:15:08;12.00;;;5.85;;
61909;SDS011;47865;52.086;5.410;2022-09-21T07:17:36;16.88;;;6.13;;
61909;SDS011;47865;52.086;5.410;2022-09-21T07:20:04;18.52;;;7.07;;
61909;SDS011;47865;52.086;5.410;2022-09-21T07:22:33;11.88;;;5.60;;
61909;SDS011;47865;52.086;5.410;2022-09-21T07:25:01;10.82;;;5.85;;
61909;SDS011;47865;52.086;5.410;2022-09-21T07:27:31;12.80;;;5.75;;
61909;SDS011;47865;52.086;5.410;2022-09-21T07:29:58;12.57;;;6.07;;
61909;SDS011;47865;52.086;5.410;2022-09-21T07:32:25;10.90;;;5.82;;
61909;SDS011;47865;52.086;5.410;2022-09-21T07:34:52;14.18;;;6.25;;
61909;SDS011;47865;52.086;5.410;2022-09-21T07:37:22;11.07;;;5.65;;
61909;SDS011;47865;52.086;5.410;2022-09-21T07:39:50;14.18;;;6.10;;
61909;SDS011;47865;52.086;5.410;2022-09-21T07:42:18;12.63;;;5.10;;
61909;SDS011;47865;52.086;5.410;2022-09-21T07:44:47;13.30;;;5.25;;
61909;SDS011;47865;52.086;5.410;2022-09-21T07:47:16;14.50;;;5.07;;
61909;SDS011;47865;52.086;5.410;2022-09-21T07:49:42;12.75;;;5.57;;
61909;SDS011;47865;52.086;5.410;2022-09-21T07:52:10;13.15;;;5.40;;
61909;SDS011;47865;52.086;5.410;2022-09-21T07:54:37;16.17;;;6.00;;
61909;SDS011;47865;52.086;5.410;2022-09-21T07:57:03;17.27;;;5.68;;
61909;SDS011;47865;52.086;5.410;2022-09-21T07:59:49;10.00;;;4.70;;
61909;SDS011;47865;52.086;5.410;2022-09-21T08:02:16;11.57;;;4.72;;
61909;SDS011;47865;52.086;5.410;2022-09-21T08:04:42;13.00;;;4.85;;
61909;SDS011;47865;52.086;5.410;2022-09-21T08:07:09;14.65;;;4.60;;
61909;SDS011;47865;52.086;5.410;2022-09-21T08:09:36;9.93;;;4.32;;
61909;SDS011;47865;52.086;5.410;2022-09-21T08:12:03;12.63;;;3.70;;
61909;SDS011;47865;52.086;5.410;2022-09-21T08:14:30;13.43;;;3.50;;
61909;SDS011;47865;52.086;5.410;2022-09-21T08:16:57;13.02;;;4.45;;
61909;SDS011;47865;52.086;5.410;2022-09-21T08:19:23;12.82;;;4.45;;
61909;SDS011;47865;52.086;5.410;2022-09-21T08:21:52;10.65;;;3.67;;
61909;SDS011;47865;52.086;5.410;2022-09-21T08:24:23;15.38;;;4.07;;
61909;SDS011;47865;52.086;5.410;2022-09-21T08:26:52;11.98;;;3.95;;
61909;SDS011;47865;52.086;5.410;2022-09-21T08:29:20;11.95;;;4.22;;
61909;SDS011;47865;52.086;5.410;2022-09-21T08:31:47;13.60;;;3.67;;
61909;SDS011;47865;52.086;5.410;2022-09-21T08:34:14;6.28;;;3.13;;
61909;SDS011;47865;52.086;5.410;2022-09-21T08:36:41;13.43;;;4.03;;
61909;SDS011;47865;52.086;5.410;2022-09-21T08:39:08;13.25;;;3.33;;
61909;SDS011;47865;52.086;5.410;2022-09-21T08:44:23;8.25;;;2.47;;
61909;SDS011;47865;52.086;5.410;2022-09-21T08:47:08;8.90;;;2.85;;
61909;SDS011;47865;52.086;5.410;2022-09-21T08:49:44;10.88;;;2.40;;
61909;SDS011;47865;52.086;5.410;2022-09-21T08:52:17;9.18;;;2.47;;
61909;SDS011;47865;52.086;5.410;2022-09-21T08:57:14;9.32;;;2.40;;
61909;SDS011;47865;52.086;5.410;2022-09-21T08:59:46;4.28;;;1.50;;
61909;SDS011;47865;52.086;5.410;2022-09-21T09:05:17;8.70;;;1.92;;
61909;SDS011;47865;52.086;5.410;2022-09-21T09:19:13;9.15;;;1.88;;
61909;SDS011;47865;52.086;5.410;2022-09-21T09:22:03;10.80;;;2.42;;
61909;SDS011;47865;52.086;5.410;2022-09-21T09:24:40;5.60;;;1.80;;
61909;SDS011;47865;52.086;5.410;2022-09-21T09:27:23;7.80;;;1.33;;
61909;SDS011;47865;52.086;5.410;2022-09-21T09:30:03;6.38;;;1.20;;
61909;SDS011;47865;52.086;5.410;2022-09-21T09:32:38;12.52;;;1.50;;
61909;SDS011;47865;52.086;5.410;2022-09-21T09:37:55;8.48;;;1.98;;
61909;SDS011;47865;52.086;5.410;2022-09-21T09:40:43;9.65;;;1.33;;
61909;SDS011;47865;52.086;5.410;2022-09-21T09:43:36;6.63;;;1.27;;
61909;SDS011;47865;52.086;5.410;2022-09-21T09:51:30;5.68;;;1.23;;
61909;SDS011;47865;52.086;5.410;2022-09-21T09:54:02;6.10;;;1.45;;
61909;SDS011;47865;52.086;5.410;2022-09-21T09:56:34;3.80;;;1.20;;
61909;SDS011;47865;52.086;5.410;2022-09-21T09:59:02;4.43;;;1.13;;
61909;SDS011;47865;52.086;5.410;2022-09-21T10:04:03;6.75;;;1.45;;
61909;SDS011;47865;52.086;5.410;2022-09-21T10:06:33;6.53;;;1.30;;
61909;SDS011;47865;52.086;5.410;2022-09-21T10:09:00;6.25;;;1.20;;
61909;SDS011;47865;52.086;5.410;2022-09-21T10:11:34;2.03;;;0.93;;
61909;SDS011;47865;52.086;5.410;2022-09-21T10:14:06;1.83;;;0.68;;
61909;SDS011;47865;52.086;5.410;2022-09-21T10:16:41;5.53;;;1.25;;
61909;SDS011;47865;52.086;5.410;2022-09-21T10:19:16;4.85;;;1.30;;
61909;SDS011;47865;52.086;5.410;2022-09-21T10:21:46;3.53;;;0.80;;
61909;SDS011;47865;52.086;5.410;2022-09-21T10:24:19;4.57;;;0.80;;
61909;SDS011;47865;52.086;5.410;2022-09-21T10:27:03;4.13;;;0.90;;
61909;SDS011;47865;52.086;5.410;2022-09-21T10:29:38;3.50;;;0.65;;
61909;SDS011;47865;52.086;5.410;2022-09-21T10:34:40;3.42;;;1.02;;
61909;SDS011;47865;52.086;5.410;2022-09-21T10:37:41;4.63;;;0.65;;
61909;SDS011;47865;52.086;5.410;2022-09-21T10:42:55;15.02;;;7.18;;
61909;SDS011;47865;52.086;5.410;2022-09-21T10:45:26;4.20;;;1.10;;
61909;SDS011;47865;52.086;5.410;2022-09-21T10:47:55;5.80;;;1.08;;
61909;SDS011;47865;52.086;5.410;2022-09-21T10:50:39;3.45;;;0.73;;
61909;SDS011;47865;52.086;5.410;2022-09-21T10:55:42;3.70;;;1.35;;
61909;SDS011;47865;52.086;5.410;2022-09-21T10:58:34;3.60;;;0.90;;
61909;SDS011;47865;52.086;5.410;2022-09-21T11:06:29;2.97;;;0.70;;
61909;SDS011;47865;52.086;5.410;2022-09-21T11:09:08;3.13;;;0.63;;
61909;SDS011;47865;52.086;5.410;2022-09-21T11:14:36;2.55;;;0.70;;
61909;SDS011;47865;52.086;5.410;2022-09-21T11:20:12;2.17;;;0.65;;
61909;SDS011;47865;52.086;5.410;2022-09-21T11:23:04;5.32;;;0.50;;
61909;SDS011;47865;52.086;5.410;2022-09-21T11:25:41;1.23;;;0.50;;
61909;SDS011;47865;52.086;5.410;2022-09-21T11:28:22;4.35;;;1.63;;
61909;SDS011;47865;52.086;5.410;2022-09-21T11:41:41;2.65;;;0.75;;
61909;SDS011;47865;52.086;5.410;2022-09-21T12:04:19;6.00;;;1.08;;
61909;SDS011;47865;52.086;5.410;2022-09-21T12:10:35;7.78;;;1.10;;
61909;SDS011;47865;52.086;5.410;2022-09-21T12:12:56;3.83;;;0.70;;
61909;SDS011;47865;52.086;5.410;2022-09-21T12:18:24;3.30;;;0.55;;
61909;SDS011;47865;52.086;5.410;2022-09-21T12:21:24;2.60;;;0.80;;
61909;SDS011;47865;52.086;5.410;2022-09-21T12:24:02;4.18;;;0.90;;
61909;SDS011;47865;52.086;5.410;2022-09-21T12:26:32;5.25;;;1.38;;
61909;SDS011;47865;52.086;5.410;2022-09-21T12:29:16;4.68;;;0.70;;
61909;SDS011;47865;52.086;5.410;2022-09-21T12:31:58;2.35;;;0.43;;
61909;SDS011;47865;52.086;5.410;2022-09-21T12:34:33;3.90;;;0.70;;
61909;SDS011;47865;52.086;5.410;2022-09-21T12:40:20;4.28;;;0.63;;
61909;SDS011;47865;52.086;5.410;2022-09-21T12:46:00;1.95;;;0.35;;
61909;SDS011;47865;52.086;5.410;2022-09-21T12:48:36;2.50;;;0.50;;
61909;SDS011;47865;52.086;5.410;2022-09-21T12:51:21;3.35;;;0.45;;
61909;SDS011;47865;52.086;5.410;2022-09-21T12:53:55;3.38;;;0.77;;
61909;SDS011;47865;52.086;5.410;2022-09-21T13:05:06;3.33;;;0.40;;
61909;SDS011;47865;52.086;5.410;2022-09-21T13:12:55;4.47;;;0.55;;
61909;SDS011;47865;52.086;5.410;2022-09-21T13:15:29;3.63;;;0.70;;
61909;SDS011;47865;52.086;5.410;2022-09-21T13:20:46;1.98;;;0.57;;
61909;SDS011;47865;52.086;5.410;2022-09-21T13:23:19;1.67;;;0.55;;
61909;SDS011;47865;52.086;5.410;2022-09-21T13:25:59;2.53;;;0.50;;
61909;SDS011;47865;52.086;5.410;2022-09-21T13:34:28;3.33;;;0.85;;
61909;SDS011;47865;52.086;5.410;2022-09-21T13:44:58;1.33;;;0.80;;
61909;SDS011;47865;52.086;5.410;2022-09-21T13:49:55;2.72;;;0.70;;
61909;SDS011;47865;52.086;5.410;2022-09-21T13:52:27;2.45;;;1.05;;
61909;SDS011;47865;52.086;5.410;2022-09-21T13:55:30;3.45;;;0.80;;
61909;SDS011;47865;52.086;5.410;2022-09-21T13:58:01;3.33;;;0.98;;
61909;SDS011;47865;52.086;5.410;2022-09-21T14:00:49;4.07;;;1.00;;
61909;SDS011;47865;52.086;5.410;2022-09-21T14:03:24;1.33;;;0.80;;
61909;SDS011;47865;52.086;5.410;2022-09-21T14:06:10;3.88;;;0.90;;
61909;SDS011;47865;52.086;5.410;2022-09-21T14:08:51;4.40;;;1.10;;
61909;SDS011;47865;52.086;5.410;2022-09-21T14:11:29;4.03;;;0.63;;
61909;SDS011;47865;52.086;5.410;2022-09-21T14:14:03;4.93;;;1.45;;
61909;SDS011;47865;52.086;5.410;2022-09-21T14:19:57;5.35;;;1.50;;
61909;SDS011;47865;52.086;5.410;2022-09-21T14:24:35;5.75;;;0.90;;
61909;SDS011;47865;52.086;5.410;2022-09-21T14:32:23;3.20;;;0.80;;
61909;SDS011;47865;52.086;5.410;2022-09-21T14:34:55;4.63;;;0.80;;
61909;SDS011;47865;52.086;5.410;2022-09-21T14:37:30;6.43;;;1.10;;
61909;SDS011;47865;52.086;5.410;2022-09-21T14:40:15;12.60;;;4.53;;
61909;SDS011;47865;52.086;5.410;2022-09-21T14:42:48;4.70;;;0.90;;
61909;SDS011;47865;52.086;5.410;2022-09-21T14:45:19;5.00;;;1.00;;
61909;SDS011;47865;52.086;5.410;2022-09-21T14:50:33;6.32;;;1.23;;
61909;SDS011;47865;52.086;5.410;2022-09-21T14:56:09;4.05;;;0.93;;
61909;SDS011;47865;52.086;5.410;2022-09-21T15:01:34;6.70;;;2.05;;
61909;SDS011;47865;52.086;5.410;2022-09-21T15:18:23;2.30;;;0.60;;
61909;SDS011;47865;52.086;5.410;2022-09-21T15:20:54;2.30;;;0.80;;
61909;SDS011;47865;52.086;5.410;2022-09-21T15:23:33;4.10;;;0.88;;
61909;SDS011;47865;52.086;5.410;2022-09-21T15:26:07;4.40;;;1.67;;
61909;SDS011;47865;52.086;5.410;2022-09-21T15:28:42;2.03;;;0.75;;
61909;SDS011;47865;52.086;5.410;2022-09-21T15:31:34;2.13;;;0.88;;
61909;SDS011;47865;52.086;5.410;2022-09-21T15:34:03;2.95;;;0.63;;
61909;SDS011;47865;52.086;5.410;2022-09-21T15:36:32;5.38;;;0.88;;
61909;SDS011;47865;52.086;5.410;2022-09-21T15:39:03;3.25;;;0.88;;
61909;SDS011;47865;52.086;5.410;2022-09-21T15:41:41;3.55;;;0.80;;
61909;SDS011;47865;52.086;5.410;2022-09-21T15:44:17;3.67;;;0.80;;
61909;SDS011;47865;52.086;5.410;2022-09-21T15:46:52;3.58;;;0.60;;
61909;SDS011;47865;52.086;5.410;2022-09-21T15:49:26;2.63;;;0.88;;
61909;SDS011;47865;52.086;5.410;2022-09-21T15:51:55;1.73;;;0.70;;
61909;SDS011;47865;52.086;5.410;2022-09-21T16:02:48;2.30;;;0.82;;
61909;SDS011;47865;52.086;5.410;2022-09-21T16:05:44;5.30;;;0.80;;
61909;SDS011;47865;52.086;5.410;2022-09-21T16:11:09;3.75;;;0.73;;
61909;SDS011;47865;52.086;5.410;2022-09-21T16:13:36;4.22;;;0.80;;
61909;SDS011;47865;52.086;5.410;2022-09-21T16:16:21;4.75;;;0.52;;
61909;SDS011;47865;52.086;5.410;2022-09-21T16:18:49;4.40;;;0.77;;
61909;SDS011;47865;52.086;5.410;2022-09-21T16:21:19;3.53;;;1.00;;
61909;SDS011;47865;52.086;5.410;2022-09-21T16:23:51;8.15;;;3.53;;
61909;SDS011;47865;52.086;5.410;2022-09-21T16:26:22;7.72;;;3.00;;
61909;SDS011;47865;52.086;5.410;2022-09-21T16:29:15;5.57;;;1.15;;
61909;SDS011;47865;52.086;5.410;2022-09-21T16:31:44;1.88;;;0.95;;
61909;SDS011;47865;52.086;5.410;2022-09-21T16:34:28;5.80;;;1.00;;
61909;SDS011;47865;52.086;5.410;2022-09-21T16:39:55;4.57;;;1.10;;
61909;SDS011;47865;52.086;5.410;2022-09-21T16:42:28;3.97;;;0.95;;
61909;SDS011;47865;52.086;5.410;2022-09-21T16:44:58;2.10;;;0.80;;
61909;SDS011;47865;52.086;5.410;2022-09-21T16:47:26;3.15;;;1.15;;
61909;SDS011;47865;52.086;5.410;2022-09-21T16:49:54;2.22;;;0.70;;
61909;SDS011;47865;52.086;5.410;2022-09-21T16:52:27;2.20;;;0.60;;
61909;SDS011;47865;52.086;5.410;2022-09-21T16:54:55;2.85;;;0.85;;
61909;SDS011;47865;52.086;5.410;2022-09-21T16:57:23;6.35;;;0.75;;
61909;SDS011;47865;52.086;5.410;2022-09-21T16:59:51;4.25;;;0.70;;
61909;SDS011;47865;52.086;5.410;2022-09-21T17:02:18;2.83;;;0.77;;
61909;SDS011;47865;52.086;5.410;2022-09-21T17:04:45;2.97;;;1.00;;
61909;SDS011;47865;52.086;5.410;2022-09-21T17:07:13;2.63;;;0.88;;
61909;SDS011;47865;52.086;5.410;2022-09-21T17:09:41;3.42;;;1.17;;
61909;SDS011;47865;52.086;5.410;2022-09-21T17:12:13;3.28;;;0.70;;
61909;SDS011;47865;52.086;5.410;2022-09-21T17:14:43;4.90;;;1.00;;
61909;SDS011;47865;52.086;5.410;2022-09-21T17:19:43;2.22;;;0.40;;
61909;SDS011;47865;52.086;5.410;2022-09-21T17:22:11;3.28;;;0.80;;
61909;SDS011;47865;52.086;5.410;2022-09-21T17:24:47;3.28;;;0.82;;
61909;SDS011;47865;52.086;5.410;2022-09-21T17:27:22;6.55;;;1.25;;
61909;SDS011;47865;52.086;5.410;2022-09-21T17:29:51;10.63;;;1.77;;
61909;SDS011;47865;52.086;5.410;2022-09-21T17:32:20;7.25;;;1.90;;
61909;SDS011;47865;52.086;5.410;2022-09-21T17:37:55;2.83;;;0.82;;
61909;SDS011;47865;52.086;5.410;2022-09-21T17:40:23;4.90;;;0.90;;
61909;SDS011;47865;52.086;5.410;2022-09-21T17:42:50;2.83;;;0.73;;
61909;SDS011;47865;52.086;5.410;2022-09-21T17:48:17;4.75;;;0.80;;
61909;SDS011;47865;52.086;5.410;2022-09-21T17:50:45;5.65;;;1.15;;
61909;SDS011;47865;52.086;5.410;2022-09-21T17:53:13;5.68;;;0.98;;
61909;SDS011;47865;52.086;5.410;2022-09-21T17:59:01;3.47;;;0.80;;
61909;SDS011;47865;52.086;5.410;2022-09-21T18:01:31;1.88;;;0.95;;
61909;SDS011;47865;52.086;5.410;2022-09-21T18:03:59;3.45;;;1.10;;
61909;SDS011;47865;52.086;5.410;2022-09-21T18:06:27;4.28;;;1.00;;
61909;SDS011;47865;52.086;5.410;2022-09-21T18:08:54;3.17;;;1.10;;
61909;SDS011;47865;52.086;5.410;2022-09-21T18:14:04;7.70;;;1.60;;
61909;SDS011;47865;52.086;5.410;2022-09-21T18:22:24;4.75;;;1.70;;
61909;SDS011;47865;52.086;5.410;2022-09-21T18:25:15;12.00;;;1.92;;
61909;SDS011;47865;52.086;5.410;2022-09-21T18:27:48;8.07;;;1.92;;
61909;SDS011;47865;52.086;5.410;2022-09-21T18:30:15;11.35;;;2.83;;
61909;SDS011;47865;52.086;5.410;2022-09-21T18:46:01;6.45;;;2.03;;
61909;SDS011;47865;52.086;5.410;2022-09-21T18:51:39;4.97;;;1.65;;
61909;SDS011;47865;52.086;5.410;2022-09-21T18:54:22;5.60;;;1.40;;
61909;SDS011;47865;52.086;5.410;2022-09-21T18:56:52;8.52;;;1.65;;
61909;SDS011;47865;52.086;5.410;2022-09-21T18:59:20;5.30;;;2.00;;
61909;SDS011;47865;52.086;5.410;2022-09-21T19:01:47;2.60;;;1.30;;
61909;SDS011;47865;52.086;5.410;2022-09-21T19:04:15;4.97;;;1.25;;
61909;SDS011;47865;52.086;5.410;2022-09-21T19:06:54;4.43;;;1.15;;
61909;SDS011;47865;52.086;5.410;2022-09-21T19:12:13;2.88;;;0.95;;
61909;SDS011;47865;52.086;5.410;2022-09-21T19:14:54;3.70;;;1.13;;
61909;SDS011;47865;52.086;5.410;2022-09-21T19:18:16;3.80;;;1.05;;
61909;SDS011;47865;52.086;5.410;2022-09-21T19:32:24;6.70;;;1.38;;
61909;SDS011;47865;52.086;5.410;2022-09-21T19:34:56;2.75;;;1.00;;
61909;SDS011;47865;52.086;5.410;2022-09-21T19:37:27;4.90;;;0.90;;
61909;SDS011;47865;52.086;5.410;2022-09-21T19:39:54;2.65;;;0.75;;
61909;SDS011;47865;52.086;5.410;2022-09-21T19:42:27;6.47;;;1.25;;